Time;durP1;ratioP1;P1;durP2;ratioP2;P2;SDS_P1;SDS_P2;PMS_P1;PMS_P2;Temp;Humidity;BMP_temperature;BMP_pressure;BME280_temperature;BME280_humidity;BME280_pressure;Samples;Min_cycle;Max_cycle;Signal;HPM_P1;HPM_P2
2022/09/12 00:01:26;;;;;;;21.20;19.23;;;16.50;99.90;;;;;;4963964;28;20049;-78
2022/09/12 00:03:57;;;;;;;21.73;19.85;;;16.40;99.90;;;;;;4994393;28;20445;-78
2022/09/12 00:06:28;;;;;;;20.98;19.13;;;16.40;99.90;;;;;;4964871;28;20608;-78
2022/09/12 00:08:57;;;;;;;22.08;20.17;;;16.40;99.90;;;;;;4961724;28;20043;-78
2022/09/12 00:11:23;;;;;;;22.27;20.00;;;16.30;99.90;;;;;;4968160;28;20129;-78
2022/09/12 00:13:49;;;;;;;23.87;21.67;;;16.30;99.90;;;;;;4966795;28;20085;-78
2022/09/12 00:16:17;;;;;;;22.67;20.63;;;16.30;99.90;;;;;;4964724;28;20490;-78
2022/09/12 00:18:45;;;;;;;22.08;20.08;;;16.30;99.90;;;;;;4967581;28;20078;-77
2022/09/12 00:21:11;;;;;;;23.30;21.10;;;16.30;99.90;;;;;;4966982;28;20054;-78
2022/09/12 00:23:37;;;;;;;23.75;21.55;;;16.30;99.90;;;;;;4967385;28;20396;-78
2022/09/12 00:26:07;;;;;;;23.00;20.88;;;16.20;99.90;;;;;;4966007;28;20045;-78
2022/09/12 00:28:34;;;;;;;22.45;20.48;;;16.20;99.90;;;;;;4966903;28;20085;-78
2022/09/12 00:31:07;;;;;;;24.00;21.95;;;16.20;99.90;;;;;;4999319;28;20038;-78
2022/09/12 00:33:33;;;;;;;23.38;21.25;;;16.10;99.90;;;;;;4970171;28;20117;-77
2022/09/12 00:36:02;;;;;;;21.70;19.80;;;16.10;99.90;;;;;;4964784;28;20051;-78
2022/09/12 00:38:28;;;;;;;22.42;20.23;;;16.10;99.90;;;;;;5000664;28;20654;-77
2022/09/12 00:40:53;;;;;;;22.63;20.55;;;16.00;99.90;;;;;;4986393;28;20080;-78
2022/09/12 00:43:34;;;;;;;24.42;22.02;;;16.00;99.90;;;;;;4986861;28;20053;-78
2022/09/12 00:46:10;;;;;;;21.98;19.92;;;16.00;99.90;;;;;;4981141;28;20515;-78
2022/09/12 00:48:41;;;;;;;23.75;21.55;;;15.90;99.90;;;;;;4987509;28;20053;-78
2022/09/12 00:51:08;;;;;;;26.80;24.35;;;15.90;99.90;;;;;;5002366;28;20046;-77
2022/09/12 00:53:33;;;;;;;26.58;24.08;;;15.90;99.90;;;;;;5000470;28;20057;-78
2022/09/12 00:56:00;;;;;;;25.95;23.55;;;15.90;99.90;;;;;;4968611;28;20058;-78
2022/09/12 00:58:30;;;;;;;24.58;22.25;;;15.90;99.90;;;;;;4985790;28;20161;-78
2022/09/12 01:00:57;;;;;;;25.20;22.85;;;15.90;99.90;;;;;;4977506;28;20626;-77
2022/09/12 01:03:23;;;;;;;21.80;19.73;;;15.90;99.90;;;;;;4966684;28;20113;-78
2022/09/12 01:06:00;;;;;;;20.90;18.92;;;15.90;99.90;;;;;;4981448;28;20042;-78
2022/09/12 01:08:27;;;;;;;20.40;18.50;;;15.90;99.90;;;;;;4981419;28;20666;-78
2022/09/12 01:10:54;;;;;;;20.70;18.50;;;15.90;99.90;;;;;;4982779;28;20481;-78
2022/09/12 01:13:20;;;;;;;21.25;19.25;;;15.80;99.90;;;;;;4967117;28;20525;-78
2022/09/12 01:15:45;;;;;;;21.45;19.55;;;15.80;99.90;;;;;;4998888;28;20042;-78
2022/09/12 01:18:49;;;;;;;25.67;23.35;;;15.80;99.90;;;;;;4978284;28;20138;-77
2022/09/12 01:21:25;;;;;;;23.02;20.98;;;15.80;99.90;;;;;;4975325;28;20054;-78
2022/09/12 01:24:28;;;;;;;26.08;23.77;;;15.80;99.90;;;;;;4961904;28;20054;-78
2022/09/12 01:27:12;;;;;;;28.25;25.65;;;15.80;99.90;;;;;;4982088;28;20038;-78
2022/09/12 01:30:23;;;;;;;26.67;24.05;;;15.80;99.90;;;;;;4967265;28;20053;-77
2022/09/12 01:32:58;;;;;;;26.77;24.38;;;15.80;99.90;;;;;;4948652;28;20061;-77
2022/09/12 01:35:46;;;;;;;25.92;23.42;;;15.80;99.90;;;;;;4978438;28;20119;-77
2022/09/12 01:38:30;;;;;;;26.77;24.23;;;15.80;99.90;;;;;;4969022;28;20070;-78
2022/09/12 01:41:18;;;;;;;26.48;24.08;;;15.70;99.90;;;;;;4981870;28;20050;-78
2022/09/12 01:43:50;;;;;;;28.50;25.88;;;15.70;99.90;;;;;;4995151;28;20042;-77
2022/09/12 01:46:17;;;;;;;31.77;28.77;;;15.70;99.90;;;;;;4974509;28;20049;-78
2022/09/12 01:49:11;;;;;;;31.08;28.38;;;15.70;99.90;;;;;;4974553;28;20050;-77
2022/09/12 01:52:09;;;;;;;29.80;27.05;;;15.70;99.90;;;;;;4979425;28;20044;-77
2022/09/12 01:54:41;;;;;;;28.67;25.98;;;15.60;99.90;;;;;;4975471;28;20069;-78
2022/09/12 01:57:15;;;;;;;28.75;25.95;;;15.60;99.90;;;;;;4979005;28;20041;-78
2022/09/12 01:59:46;;;;;;;28.38;25.77;;;15.60;99.90;;;;;;4969108;28;20054;-78
2022/09/12 02:02:13;;;;;;;29.42;26.73;;;15.60;99.90;;;;;;4977936;28;20050;-77
2022/09/12 02:04:51;;;;;;;28.70;26.02;;;15.60;99.90;;;;;;4984228;28;20121;-78
2022/09/12 02:07:32;;;;;;;30.85;27.95;;;15.50;99.90;;;;;;4984069;28;20053;-77
2022/09/12 02:10:32;;;;;;;31.75;28.80;;;15.50;99.90;;;;;;4967797;28;20740;-78
2022/09/12 02:13:17;;;;;;;29.17;26.48;;;15.50;99.90;;;;;;4976597;28;20520;-77
2022/09/12 02:15:48;;;;;;;32.65;29.75;;;15.50;99.90;;;;;;4998618;28;20049;-78
2022/09/12 02:18:17;;;;;;;32.92;29.83;;;15.50;99.90;;;;;;4981378;28;20415;-78
2022/09/12 02:20:45;;;;;;;34.67;31.45;;;15.50;99.90;;;;;;4983428;28;20120;-77
2022/09/12 02:23:17;;;;;;;33.42;30.27;;;15.50;99.90;;;;;;4983433;28;20096;-78
2022/09/12 02:25:45;;;;;;;35.38;32.08;;;15.60;99.90;;;;;;4980017;28;20561;-77
2022/09/12 02:28:15;;;;;;;34.00;30.83;;;15.50;99.90;;;;;;4964852;28;20042;-77
2022/09/12 02:30:49;;;;;;;34.35;31.23;;;15.50;99.90;;;;;;4982150;28;20100;-77
2022/09/12 02:33:26;;;;;;;32.95;29.88;;;15.50;99.90;;;;;;4980149;28;20053;-78
2022/09/12 02:36:12;;;;;;;36.38;32.67;;;15.50;99.90;;;;;;4987065;28;20038;-78
2022/09/12 02:38:44;;;;;;;33.30;30.10;;;15.50;99.90;;;;;;4986205;28;20402;-77
2022/09/12 02:41:13;;;;;;;31.60;28.70;;;15.50;99.90;;;;;;4986635;28;20092;-77
2022/09/12 02:43:39;;;;;;;34.88;31.48;;;15.40;99.90;;;;;;4963028;28;20050;-77
2022/09/12 02:46:09;;;;;;;34.80;31.40;;;15.40;99.90;;;;;;4990318;28;20061;-78
2022/09/12 02:48:37;;;;;;;37.17;33.53;;;15.40;99.90;;;;;;4986629;28;20124;-77
2022/09/12 02:51:03;;;;;;;36.53;33.10;;;15.40;99.90;;;;;;4985292;28;20508;-77
2022/09/12 02:53:30;;;;;;;37.35;33.75;;;15.40;99.90;;;;;;4999565;28;20039;-77
2022/09/12 02:55:56;;;;;;;36.42;33.03;;;15.40;99.90;;;;;;4988729;28;20046;-77
2022/09/12 02:58:28;;;;;;;37.10;33.22;;;15.50;99.90;;;;;;4984858;28;20041;-77
2022/09/12 03:01:33;;;;;;;34.67;31.38;;;15.40;99.90;;;;;;4987251;28;20038;-77
2022/09/12 03:04:21;;;;;;;33.58;30.27;;;15.40;99.90;;;;;;4981072;28;20514;-77
2022/09/12 03:07:05;;;;;;;35.50;32.10;;;15.40;99.90;;;;;;4985369;28;20045;-77
2022/09/12 03:09:52;;;;;;;34.90;31.58;;;15.40;99.90;;;;;;4987323;28;20529;-78
2022/09/12 03:12:48;;;;;;;35.70;32.30;;;15.40;99.90;;;;;;4966264;28;20061;-77
2022/09/12 03:15:29;;;;;;;36.30;32.80;;;15.30;99.90;;;;;;4986018;28;20129;-77
2022/09/12 03:18:07;;;;;;;36.38;33.00;;;15.30;99.90;;;;;;4986961;28;20046;-77
2022/09/12 03:20:40;;;;;;;36.97;33.47;;;15.30;99.90;;;;;;4978365;28;20045;-77
2022/09/12 03:23:23;;;;;;;34.35;31.05;;;15.30;99.90;;;;;;4986737;28;20061;-77
2022/09/12 03:25:57;;;;;;;35.30;32.00;;;15.30;99.90;;;;;;4988743;28;20042;-77
2022/09/12 03:28:23;;;;;;;35.80;32.30;;;15.20;99.90;;;;;;4984737;28;20068;-77
2022/09/12 03:30:53;;;;;;;36.25;32.85;;;15.20;99.90;;;;;;4967470;28;20613;-77
2022/09/12 03:33:24;;;;;;;36.38;32.88;;;15.20;99.90;;;;;;4985614;28;20137;-76
2022/09/12 03:35:51;;;;;;;37.67;33.83;;;15.20;99.90;;;;;;4989184;28;20062;-78
2022/09/12 03:38:17;;;;;;;34.72;31.60;;;15.20;99.90;;;;;;4983290;28;20097;-78
2022/09/12 03:40:43;;;;;;;34.20;30.90;;;15.30;99.90;;;;;;4999142;28;20042;-77
2022/09/12 03:43:10;;;;;;;35.97;32.45;;;15.20;99.90;;;;;;4983515;28;20134;-77
2022/09/12 03:45:36;;;;;;;35.97;32.65;;;15.20;99.90;;;;;;4985489;28;20498;-77
2022/09/12 03:48:03;;;;;;;37.10;33.40;;;15.10;99.90;;;;;;4985733;28;20060;-78
2022/09/12 03:50:28;;;;;;;34.08;30.98;;;15.10;99.90;;;;;;4994149;28;20046;-78
2022/09/12 03:52:55;;;;;;;35.78;32.28;;;15.10;99.90;;;;;;4980243;28;20044;-77
2022/09/12 03:55:20;;;;;;;34.33;31.02;;;15.10;99.90;;;;;;4969476;28;20045;-77
2022/09/12 03:57:46;;;;;;;34.90;31.60;;;15.00;99.90;;;;;;4987055;28;20038;-77
2022/09/12 04:00:12;;;;;;;34.10;30.90;;;15.00;99.90;;;;;;4983365;28;20042;-77
2022/09/12 04:02:37;;;;;;;32.85;29.70;;;15.00;99.90;;;;;;4984177;28;20090;-77
2022/09/12 04:05:03;;;;;;;36.25;32.72;;;15.00;99.90;;;;;;4985164;28;20046;-78
2022/09/12 04:07:29;;;;;;;34.90;31.70;;;15.00;99.90;;;;;;4984761;28;20645;-78
2022/09/12 04:09:55;;;;;;;36.50;33.00;;;14.90;99.90;;;;;;4985744;28;20038;-77
2022/09/12 04:12:21;;;;;;;38.58;34.83;;;14.90;99.90;;;;;;4980572;28;20046;-77
2022/09/12 04:14:46;;;;;;;36.20;32.80;;;14.90;99.90;;;;;;4982569;28;20046;-77
2022/09/12 04:17:13;;;;;;;38.72;34.60;;;14.90;99.90;;;;;;4985368;28;20486;-77
2022/09/12 04:19:39;;;;;;;36.97;33.38;;;14.90;99.90;;;;;;4985638;28;20421;-77
2022/09/12 04:22:04;;;;;;;37.20;33.50;;;14.90;99.90;;;;;;4988212;28;20042;-78
2022/09/12 04:24:30;;;;;;;38.38;34.58;;;14.90;99.90;;;;;;4984371;28;20059;-78
2022/09/12 04:26:56;;;;;;;38.17;34.58;;;14.90;99.90;;;;;;4963391;28;20097;-77
2022/09/12 04:29:21;;;;;;;40.17;36.15;;;14.90;99.90;;;;;;4965863;28;20083;-78
2022/09/12 04:31:47;;;;;;;40.42;36.45;;;14.90;99.90;;;;;;4997065;28;20047;-77
2022/09/12 04:34:14;;;;;;;39.35;35.55;;;14.80;99.90;;;;;;4977844;28;20047;-77
2022/09/12 04:36:40;;;;;;;38.90;35.22;;;14.80;99.90;;;;;;4983240;28;20042;-78
2022/09/12 04:39:06;;;;;;;40.42;36.45;;;14.80;99.90;;;;;;4986310;28;20045;-77
2022/09/12 04:41:36;;;;;;;38.92;35.17;;;14.80;99.90;;;;;;4987043;28;20046;-78
2022/09/12 04:44:09;;;;;;;39.28;35.38;;;14.80;99.90;;;;;;4998269;28;20605;-77
2022/09/12 04:46:37;;;;;;;41.33;37.25;;;14.70;99.90;;;;;;4983384;28;20061;-76
2022/09/12 04:49:04;;;;;;;39.03;35.13;;;14.70;99.90;;;;;;4982500;28;20383;-77
2022/09/12 04:51:32;;;;;;;37.33;33.77;;;14.70;99.90;;;;;;4981883;28;20065;-77
2022/09/12 04:54:11;;;;;;;38.83;34.97;;;14.70;99.90;;;;;;4984715;28;20387;-77
2022/09/12 04:56:39;;;;;;;37.72;33.75;;;14.60;99.90;;;;;;4983891;28;20054;-77
2022/09/12 04:59:05;;;;;;;37.65;33.78;;;14.60;99.90;;;;;;4984153;28;20120;-78
2022/09/12 05:01:31;;;;;;;36.25;32.75;;;14.60;99.90;;;;;;4980545;28;20077;-76
2022/09/12 05:03:58;;;;;;;38.30;34.55;;;14.50;99.90;;;;;;4980749;28;20038;-77
2022/09/12 05:06:27;;;;;;;41.58;37.60;;;14.50;99.90;;;;;;4981500;28;20054;-77
2022/09/12 05:08:55;;;;;;;40.70;36.50;;;14.50;99.90;;;;;;4981104;28;20054;-75
2022/09/12 05:11:21;;;;;;;;;;;14.50;99.90;;;;;;4967718;28;20055;-75
2022/09/12 05:13:47;;;;;;;37.95;34.20;;;14.50;99.90;;;;;;4968253;28;19929;-72
2022/09/12 05:16:15;;;;;;;40.10;36.10;;;14.40;99.90;;;;;;4982438;28;20042;-72
2022/09/12 05:18:41;;;;;;;39.75;35.65;;;14.50;99.90;;;;;;4966319;28;20101;-73
2022/09/12 05:21:11;;;;;;;40.10;36.30;;;14.50;99.90;;;;;;4966321;28;20152;-74
2022/09/12 05:23:40;;;;;;;40.67;36.60;;;14.60;99.90;;;;;;4990272;28;20043;-76
2022/09/12 05:26:06;;;;;;;40.13;36.08;;;14.60;99.90;;;;;;4969276;28;20505;-76
2022/09/12 05:28:37;;;;;;;42.92;38.45;;;14.60;99.90;;;;;;4990399;28;20046;-78
2022/09/12 05:31:05;;;;;;;39.72;35.67;;;14.60;99.90;;;;;;4985387;28;20413;-78
2022/09/12 05:33:32;;;;;;;39.85;35.72;;;14.60;99.90;;;;;;4985116;28;20042;-79
2022/09/12 05:35:59;;;;;;;41.53;37.13;;;14.60;99.90;;;;;;4981531;28;20050;-80
2022/09/12 05:38:24;;;;;;;41.80;37.63;;;14.70;99.90;;;;;;4984249;28;20046;-80
2022/09/12 05:41:06;;;;;;;39.90;35.83;;;14.70;99.90;;;;;;4982600;28;20134;-80
2022/09/12 05:43:40;;;;;;;39.72;35.70;;;14.70;99.90;;;;;;4977859;28;20050;-79
2022/09/12 05:46:12;;;;;;;42.03;37.22;;;14.80;99.90;;;;;;4981957;28;20601;-79
2022/09/12 05:48:40;;;;;;;42.88;38.40;;;14.90;99.90;;;;;;4965903;28;20047;-78
2022/09/12 05:51:18;;;;;;;41.50;37.20;;;14.90;99.90;;;;;;4961035;28;20556;-78
2022/09/12 05:53:45;;;;;;;39.20;35.03;;;15.00;99.90;;;;;;4985009;28;20187;-79
2022/09/12 05:56:23;;;;;;;41.65;37.38;;;15.00;99.90;;;;;;4982387;28;20097;-78
2022/09/12 05:59:17;;;;;;;41.88;37.47;;;15.00;99.90;;;;;;4984853;28;20117;-78
2022/09/12 06:01:47;;;;;;;41.90;36.63;;;15.10;99.90;;;;;;4995134;28;20053;-79
2022/09/12 06:04:13;;;;;;;41.45;37.05;;;15.10;99.90;;;;;;4986857;28;20050;-79
2022/09/12 06:06:43;;;;;;;42.92;38.50;;;15.20;99.90;;;;;;4984300;28;20041;-78
2022/09/12 06:09:10;;;;;;;42.58;38.10;;;15.20;99.90;;;;;;4984310;28;20054;-78
2022/09/12 06:11:41;;;;;;;40.75;36.45;;;15.30;99.90;;;;;;4984175;28;20038;-79
2022/09/12 06:14:09;;;;;;;40.92;36.53;;;15.30;99.90;;;;;;4982662;28;20091;-78
2022/09/12 06:16:38;;;;;;;42.85;38.35;;;15.40;99.90;;;;;;4966560;28;20121;-78
2022/09/12 06:19:07;;;;;;;43.03;38.42;;;15.40;99.90;;;;;;4999309;28;20054;-78
2022/09/12 06:21:36;;;;;;;41.55;37.20;;;15.50;99.90;;;;;;4969573;28;20114;-80
2022/09/12 06:24:02;;;;;;;43.13;38.50;;;15.50;99.90;;;;;;4981371;28;20093;-83
2022/09/12 06:26:28;;;;;;;44.83;37.72;;;15.50;99.90;;;;;;4990296;28;20042;-79
2022/09/12 06:28:56;;;;;;;45.05;38.58;;;15.50;99.90;;;;;;4983189;28;20080;-82
2022/09/12 06:31:33;;;;;;;42.47;37.88;;;15.60;99.90;;;;;;5003572;28;20168;-78
2022/09/12 06:34:04;;;;;;;43.17;38.55;;;15.60;99.90;;;;;;4992280;28;20461;-80
2022/09/12 06:36:33;;;;;;;42.85;37.92;;;15.70;99.90;;;;;;5006232;28;20042;-82
2022/09/12 06:39:06;;;;;;;42.92;37.92;;;15.70;99.90;;;;;;5008822;28;20049;-79
2022/09/12 06:41:32;;;;;;;44.00;38.10;;;15.70;99.90;;;;;;4995275;28;20545;-82
2022/09/12 06:43:59;;;;;;;43.40;38.63;;;15.70;99.90;;;;;;4973803;28;20042;-83
2022/09/12 06:46:25;;;;;;;40.90;36.63;;;15.80;99.90;;;;;;4966592;28;20585;-83
2022/09/12 06:48:51;;;;;;;40.22;35.97;;;15.80;99.90;;;;;;4996046;28;20125;-83
2022/09/12 06:51:21;;;;;;;40.50;34.92;;;15.80;99.90;;;;;;5009063;28;20403;-83
2022/09/12 06:53:48;;;;;;;39.92;35.78;;;15.90;99.90;;;;;;4973802;28;20054;-84
2022/09/12 06:56:18;;;;;;;38.85;34.78;;;15.90;99.90;;;;;;4994399;28;20046;-84
2022/09/12 06:58:44;;;;;;;38.85;34.00;;;15.90;99.90;;;;;;5010740;28;20038;-84
2022/09/12 07:01:12;;;;;;;37.70;33.33;;;16.00;99.90;;;;;;4985365;28;20113;-82
2022/09/12 07:03:38;;;;;;;36.42;32.72;;;15.90;99.90;;;;;;4985862;28;20046;-80
2022/09/12 07:06:06;;;;;;;37.08;32.58;;;16.00;99.90;;;;;;4989717;28;20034;-81
2022/09/12 07:08:34;;;;;;;35.92;32.22;;;16.10;99.90;;;;;;4990373;28;20050;-77
2022/09/12 07:11:08;;;;;;;34.00;30.50;;;16.10;99.90;;;;;;4987747;28;20547;-81
2022/09/12 07:13:34;;;;;;;34.90;31.17;;;16.10;99.90;;;;;;4990398;28;20387;-82
2022/09/12 07:16:04;;;;;;;33.05;29.65;;;16.20;99.90;;;;;;4989681;28;20039;-81
2022/09/12 07:18:32;;;;;;;32.15;28.80;;;16.20;99.90;;;;;;4986314;28;20046;-81
2022/09/12 07:21:01;;;;;;;;;;;16.20;99.90;;;;;;4991952;28;20054;-80
2022/09/12 07:23:28;;;;;;;33.80;29.98;;;16.30;99.90;;;;;;4986001;28;19929;-77
2022/09/12 07:25:55;;;;;;;32.88;29.30;;;16.30;99.90;;;;;;4986051;28;20046;-75
2022/09/12 07:28:28;;;;;;;31.38;28.15;;;16.40;99.90;;;;;;4984538;28;20137;-78
2022/09/12 07:30:54;;;;;;;31.55;27.42;;;16.40;99.90;;;;;;5002469;28;20505;-81
2022/09/12 07:33:22;;;;;;;31.42;27.63;;;16.40;99.90;;;;;;4984384;28;20101;-82
2022/09/12 07:35:48;;;;;;;31.17;27.98;;;16.50;99.90;;;;;;4965298;28;20089;-80
2022/09/12 07:38:15;;;;;;;31.45;28.15;;;16.50;99.90;;;;;;4988170;28;20386;-78
2022/09/12 07:40:41;;;;;;;32.42;27.63;;;16.60;99.90;;;;;;4985007;28;20474;-77
2022/09/12 07:43:07;;;;;;;30.42;27.30;;;16.50;99.90;;;;;;4970200;28;20050;-75
2022/09/12 07:45:32;;;;;;;30.67;27.48;;;16.60;99.90;;;;;;4987454;28;20097;-76
2022/09/12 07:47:58;;;;;;;33.20;28.60;;;16.60;99.90;;;;;;4985723;28;20635;-78
2022/09/12 07:50:24;;;;;;;33.97;30.17;;;16.70;99.90;;;;;;4987245;28;20807;-78
2022/09/12 07:52:49;;;;;;;34.53;29.25;;;16.70;99.90;;;;;;4988136;28;20045;-75
2022/09/12 07:55:15;;;;;;;30.38;27.23;;;16.70;99.90;;;;;;4985989;28;20042;-76
2022/09/12 07:57:41;;;;;;;29.58;26.48;;;16.80;99.90;;;;;;4967009;28;22101;-76
2022/09/12 08:00:07;;;;;;;31.08;27.10;;;16.70;99.90;;;;;;5002590;28;20096;-75
2022/09/12 08:02:33;;;;;;;31.85;27.02;;;16.90;99.90;;;;;;5001669;28;20046;-75
2022/09/12 08:04:59;;;;;;;31.88;27.52;;;16.90;99.90;;;;;;4972408;28;20461;-76
2022/09/12 08:07:25;;;;;;;30.60;26.42;;;16.90;99.90;;;;;;4968104;28;20299;-75
2022/09/12 08:09:50;;;;;;;29.23;26.08;;;17.00;99.90;;;;;;4986898;28;20042;-72
2022/09/12 08:12:16;;;;;;;31.42;26.95;;;17.10;99.90;;;;;;4985728;28;20088;-75
2022/09/12 08:14:42;;;;;;;28.67;25.67;;;17.10;99.90;;;;;;4985905;28;20143;-80
2022/09/12 08:17:08;;;;;;;31.23;27.77;;;17.20;99.90;;;;;;5001437;28;20492;-79
2022/09/12 08:19:33;;;;;;;29.85;26.58;;;17.20;99.90;;;;;;4989142;28;20050;-80
2022/09/12 08:21:59;;;;;;;29.10;25.77;;;17.20;99.90;;;;;;4981000;28;20117;-82
2022/09/12 08:24:24;;;;;;;29.80;26.58;;;17.30;99.90;;;;;;4984434;28;20618;-81
2022/09/12 08:26:50;;;;;;;30.63;26.40;;;17.40;99.90;;;;;;4987334;28;20461;-81
2022/09/12 08:29:16;;;;;;;28.13;25.13;;;17.40;99.90;;;;;;4983139;28;20098;-82
2022/09/12 08:31:42;;;;;;;28.63;25.63;;;17.40;99.90;;;;;;4989565;28;20122;-81
2022/09/12 08:34:08;;;;;;;28.88;25.83;;;17.40;99.90;;;;;;4987328;28;20133;-81
2022/09/12 08:36:34;;;;;;;30.52;25.70;;;17.50;99.90;;;;;;4982754;28;20112;-83
2022/09/12 08:39:03;;;;;;;28.67;25.60;;;17.50;99.90;;;;;;4986178;28;20046;-81
2022/09/12 08:41:34;;;;;;;29.27;26.27;;;17.60;99.90;;;;;;4988975;28;20125;-81
2022/09/12 08:44:15;;;;;;;28.10;25.00;;;17.60;99.90;;;;;;4987271;28;20049;-81
2022/09/12 08:47:08;;;;;;;29.30;25.42;;;17.60;99.90;;;;;;4987515;28;20050;-81
2022/09/12 08:49:56;;;;;;;27.65;24.83;;;17.70;99.90;;;;;;4971157;28;20486;-80
2022/09/12 08:52:49;;;;;;;29.50;24.98;;;17.70;99.90;;;;;;4988618;28;20049;-80
2022/09/12 08:55:30;;;;;;;28.70;25.77;;;17.70;99.90;;;;;;4986028;28;20525;-82
2022/09/12 08:57:56;;;;;;;28.90;25.75;;;17.80;99.90;;;;;;4984220;28;20050;-76
2022/09/12 09:00:22;;;;;;;29.73;25.05;;;17.80;99.90;;;;;;4985349;28;20072;-81
2022/09/12 09:03:17;;;;;;;28.67;25.65;;;17.80;99.90;;;;;;4988000;28;20049;-79
2022/09/12 09:06:05;;;;;;;27.17;24.27;;;17.90;99.90;;;;;;5003233;28;20046;-80
2022/09/12 09:08:49;;;;;;;29.17;26.05;;;17.90;99.90;;;;;;4967197;28;20112;-79
2022/09/12 09:11:20;;;;;;;30.48;25.83;;;18.00;99.90;;;;;;4983252;28;20042;-79
2022/09/12 09:16:49;;;;;;;30.55;27.30;;;18.10;99.90;;;;;;4987322;28;20048;-78
2022/09/12 09:19:25;;;;;;;30.25;27.05;;;18.10;99.90;;;;;;4983132;28;20042;-79
2022/09/12 09:21:59;;;;;;;29.80;26.60;;;18.10;99.90;;;;;;5000049;28;20040;-82
2022/09/12 09:24:37;;;;;;;30.30;27.10;;;18.20;99.90;;;;;;4969904;28;20416;-79
2022/09/12 09:27:48;;;;;;;31.38;27.98;;;18.30;99.90;;;;;;4985979;28;20045;-78
2022/09/12 09:30:18;;;;;;;35.97;31.75;;;18.40;99.90;;;;;;4910547;29;20074;-78
2022/09/12 09:32:49;;;;;;;39.13;33.03;;;18.40;99.90;;;;;;4958858;28;20109;-78
2022/09/12 09:35:42;;;;;;;40.30;32.92;;;18.50;99.90;;;;;;4967184;28;20058;-78
2022/09/12 09:38:37;;;;;;;36.47;31.70;;;18.60;99.90;;;;;;4973373;28;20051;-79
2022/09/12 09:41:21;;;;;;;38.20;32.50;;;18.80;99.90;;;;;;4970896;28;20043;-79
2022/09/12 09:43:47;;;;;;;40.80;34.22;;;18.90;99.90;;;;;;4992028;28;20140;-78
2022/09/12 09:46:14;;;;;;;40.47;35.30;;;19.00;99.90;;;;;;4992769;28;20046;-79
2022/09/12 09:48:48;;;;;;;44.00;35.53;;;19.00;99.90;;;;;;4992333;28;20396;-79
2022/09/12 09:51:16;;;;;;;41.08;34.33;;;19.10;99.90;;;;;;4976467;28;20046;-79
2022/09/12 09:54:01;;;;;;;41.22;35.17;;;19.20;99.90;;;;;;4991280;28;20057;-79
2022/09/12 09:56:33;;;;;;;39.67;34.10;;;19.20;99.90;;;;;;4992544;28;20085;-78
2022/09/12 09:59:10;;;;;;;46.58;34.78;;;19.30;99.90;;;;;;4976215;28;20065;-79
2022/09/12 10:01:42;;;;;;;40.97;34.25;;;19.40;99.90;;;;;;4994376;28;20451;-78
2022/09/12 10:04:24;;;;;;;39.63;33.10;;;19.40;99.90;;;;;;4989272;28;20058;-78
2022/09/12 10:06:58;;;;;;;41.08;32.47;;;19.50;99.90;;;;;;4989246;28;20046;-75
2022/09/12 10:09:35;;;;;;;40.50;33.40;;;19.60;99.90;;;;;;4985797;28;20109;-80
2022/09/12 10:12:27;;;;;;;43.70;33.42;;;19.70;99.90;;;;;;4971373;28;20070;-80
2022/09/12 10:15:03;;;;;;;40.45;33.92;;;19.70;99.90;;;;;;4960215;28;20368;-80
2022/09/12 10:17:46;;;;;;;38.38;30.65;;;19.80;99.90;;;;;;4991435;28;20319;-78
2022/09/12 10:20:33;;;;;;;36.92;30.35;;;19.90;99.90;;;;;;4979055;28;21097;-79
2022/09/12 10:23:00;;;;;;;;;;;20.00;99.90;;;;;;4987331;28;20046;-81
2022/09/12 10:25:26;;;;;;;35.40;29.92;;;20.10;99.90;;;;;;4990547;28;19945;-82
2022/09/12 10:27:56;;;;;;;36.88;30.38;;;20.20;99.90;;;;;;5005275;28;20375;-79
2022/09/12 10:30:26;;;;;;;34.55;30.67;;;20.30;99.90;;;;;;5002305;28;20057;-80
2022/09/12 10:32:56;;;;;;;33.80;28.90;;;20.40;99.90;;;;;;4972969;28;20046;-79
2022/09/12 10:35:42;;;;;;;33.25;28.92;;;20.50;99.90;;;;;;4966792;28;20391;-77
2022/09/12 10:38:26;;;;;;;35.47;30.13;;;20.60;99.90;;;;;;4985637;28;20476;-76
2022/09/12 10:41:02;;;;;;;37.08;31.17;;;20.60;99.90;;;;;;4992504;28;20038;-76
2022/09/12 10:43:41;;;;;;;36.35;29.35;;;20.60;99.90;;;;;;4988226;28;20034;-79
2022/09/12 10:46:20;;;;;;;35.25;28.88;;;20.70;99.90;;;;;;4990253;28;20176;-76
2022/09/12 10:49:09;;;;;;;33.95;29.15;;;20.70;99.90;;;;;;4974782;28;20039;-76
2022/09/12 10:51:35;;;;;;;33.85;29.42;;;20.80;99.90;;;;;;4973759;28;20039;-76
2022/09/12 10:54:03;;;;;;;33.15;28.48;;;20.80;99.90;;;;;;4973545;28;20050;-77
2022/09/12 10:56:46;;;;;;;32.83;27.73;;;20.90;99.90;;;;;;5015250;28;20068;-76
2022/09/12 10:59:33;;;;;;;30.45;26.25;;;21.00;99.90;;;;;;4985619;28;20046;-77
2022/09/12 11:02:36;;;;;;;34.25;24.95;;;21.00;99.90;;;;;;4964752;28;20065;-78
2022/09/12 11:05:30;;;;;;;28.98;23.08;;;21.10;99.90;;;;;;4961222;28;20058;-76
2022/09/12 11:08:27;;;;;;;29.38;22.55;;;21.20;99.90;;;;;;4968868;28;20089;-76
2022/09/12 11:11:10;;;;;;;30.02;25.27;;;21.30;99.90;;;;;;4985883;28;20815;-76
2022/09/12 11:13:57;;;;;;;26.05;22.85;;;21.40;99.90;;;;;;4994651;28;20050;-76
2022/09/12 11:16:33;;;;;;;28.45;21.05;;;21.40;99.90;;;;;;4980431;28;20050;-77
2022/09/12 11:19:04;;;;;;;22.88;20.38;;;21.50;99.90;;;;;;4996881;28;20107;-77
2022/09/12 11:22:13;;;;;;;27.13;22.27;;;21.60;99.90;;;;;;4960903;28;20508;-76
2022/09/12 11:24:56;;;;;;;27.70;22.10;;;21.70;99.90;;;;;;4946800;28;20134;-76
2022/09/12 11:27:46;;;;;;;24.02;21.52;;;21.70;99.90;;;;;;4971987;28;20109;-76
2022/09/12 11:30:15;;;;;;;24.55;20.00;;;21.80;99.90;;;;;;4968407;28;20050;-77
2022/09/12 11:33:08;;;;;;;22.88;20.40;;;21.90;99.90;;;;;;4964016;28;20073;-76
2022/09/12 11:35:40;;;;;;;22.67;19.67;;;22.00;99.90;;;;;;4986897;28;20054;-77
2022/09/12 11:38:17;;;;;;;23.88;20.05;;;22.00;99.90;;;;;;4968122;28;20074;-77
2022/09/12 11:40:54;;;;;;;22.88;18.77;;;22.10;99.90;;;;;;4967736;28;20088;-76
2022/09/12 11:43:51;;;;;;;23.10;20.00;;;22.10;99.90;;;;;;4999999;28;20058;-77
2022/09/12 11:46:19;;;;;;;;;;;22.20;99.90;;;;;;4998435;28;20046;-76
2022/09/12 11:49:06;;;;;;;20.90;17.75;;;22.20;99.90;;;;;;4966447;28;19922;-76
2022/09/12 11:51:48;;;;;;;21.88;18.05;;;22.30;99.90;;;;;;4979728;28;20085;-76
2022/09/12 11:54:19;;;;;;;23.60;19.45;;;22.40;99.90;;;;;;4964522;28;20062;-76
2022/09/12 11:56:48;;;;;;;20.90;17.17;;;22.40;99.90;;;;;;5000997;28;20046;-76
2022/09/12 11:59:28;;;;;;;19.38;16.92;;;22.50;99.90;;;;;;4984256;28;20054;-74
2022/09/12 12:01:58;;;;;;;18.92;16.15;;;22.60;99.90;;;;;;4987700;28;20189;-76
2022/09/12 12:04:34;;;;;;;19.20;16.30;;;22.60;99.90;;;;;;4968455;28;20066;-76
2022/09/12 12:07:09;;;;;;;20.55;17.83;;;22.70;99.90;;;;;;4998687;28;20057;-76
2022/09/12 12:09:44;;;;;;;18.27;15.07;;;22.70;99.90;;;;;;4983406;28;20042;-76
2022/09/12 12:12:18;;;;;;;17.23;14.27;;;22.70;99.90;;;;;;4984993;28;20860;-76
2022/09/12 12:14:46;;;;;;;14.38;12.10;;;22.70;99.90;;;;;;4987031;28;20121;-76
2022/09/12 12:17:17;;;;;;;17.05;11.77;;;22.70;99.90;;;;;;4970051;28;20050;-76
2022/09/12 12:19:45;;;;;;;11.77;9.32;;;22.70;99.90;;;;;;4967590;28;20130;-77
2022/09/12 12:22:18;;;;;;;11.88;10.05;;;22.80;99.90;;;;;;4966827;28;20042;-77
2022/09/12 12:25:05;;;;;;;11.98;10.10;;;22.80;99.90;;;;;;4985779;28;20101;-76
2022/09/12 12:27:49;;;;;;;;;;;22.90;99.90;;;;;;4987037;28;20057;-76
2022/09/12 12:30:29;;;;;;;14.18;11.45;;;22.90;99.90;;;;;;4981059;28;20015;-77
2022/09/12 12:33:26;;;;;;;16.15;12.93;;;23.00;99.90;;;;;;4986880;28;20509;-76
2022/09/12 12:35:58;;;;;;;14.98;12.15;;;23.00;99.90;;;;;;4967831;28;20140;-76
2022/09/12 12:38:31;;;;;;;14.02;11.75;;;23.10;99.90;;;;;;5000997;28;20050;-76
2022/09/12 12:41:15;;;;;;;11.63;9.90;;;23.10;99.90;;;;;;4983123;28;20437;-76
2022/09/12 12:43:46;;;;;;;12.57;10.60;;;23.20;99.90;;;;;;4975235;28;20557;-76
2022/09/12 12:46:17;;;;;;;13.77;10.90;;;23.20;99.90;;;;;;4982915;28;20105;-76
2022/09/12 12:48:52;;;;;;;14.38;12.00;;;23.30;99.90;;;;;;4974295;28;20113;-77
2022/09/12 12:51:37;;;;;;;14.77;11.02;;;23.30;99.90;;;;;;4982712;28;20073;-76
2022/09/12 12:54:25;;;;;;;14.75;10.43;;;23.30;99.90;;;;;;4992131;28;20046;-78
2022/09/12 12:57:01;;;;;;;11.68;8.90;;;23.30;99.90;;;;;;4966466;28;20707;-78
2022/09/12 12:59:27;;;;;;;12.30;9.40;;;23.40;99.90;;;;;;4986666;28;20053;-78
2022/09/12 13:01:54;;;;;;;10.93;9.20;;;23.40;99.90;;;;;;4969360;28;20721;-77